createdAt,value
2019-02-08T00:01:25.231Z,10.40
2019-02-08T00:03:54.612Z,10.80
2019-02-08T00:06:23.769Z,10.07
2019-02-08T00:08:53.026Z,10.20
2019-02-08T00:11:22.509Z,10.13
2019-02-08T00:13:51.737Z,9.13
2019-02-08T00:16:20.955Z,10.30
2019-02-08T00:18:50.167Z,9.70
2019-02-08T00:21:19.402Z,9.70
2019-02-08T00:23:48.602Z,9.87
2019-02-08T00:26:17.745Z,9.50
2019-02-08T00:28:46.896Z,10.00
2019-02-08T00:31:16.137Z,9.10
2019-02-08T00:33:45.693Z,10.10
2019-02-08T00:36:14.812Z,9.83
2019-02-08T00:38:44.079Z,9.50
2019-02-08T00:41:13.242Z,9.77
2019-02-08T00:43:42.512Z,9.20
2019-02-08T00:46:11.697Z,9.83
2019-02-08T00:48:42.094Z,9.27
2019-02-08T00:51:11.345Z,10.60
2019-02-08T00:53:40.474Z,9.00
2019-02-08T00:56:09.708Z,9.80
2019-02-08T00:58:38.922Z,9.87
2019-02-08T01:01:08.137Z,9.80
2019-02-08T01:03:37.283Z,9.73
2019-02-08T01:06:06.889Z,9.33
2019-02-08T01:08:36.037Z,10.83
2019-02-08T01:11:05.386Z,10.17
2019-02-08T01:13:34.573Z,10.47
2019-02-08T01:16:04.041Z,10.20
2019-02-08T01:18:33.262Z,10.40
2019-02-08T01:21:02.868Z,10.07
2019-02-08T01:23:32.016Z,8.67
2019-02-08T01:26:01.146Z,9.73
2019-02-08T01:28:30.283Z,9.30
2019-02-08T01:30:59.418Z,9.57
2019-02-08T01:33:28.616Z,9.10
2019-02-08T01:35:57.759Z,10.80
2019-02-08T01:38:26.907Z,9.10
2019-02-08T01:40:56.214Z,10.20
2019-02-08T01:43:25.407Z,8.90
2019-02-08T01:45:54.768Z,8.60
2019-02-08T01:48:23.975Z,9.77
2019-02-08T01:50:53.208Z,10.47
2019-02-08T01:53:22.383Z,9.47
2019-02-08T01:55:51.585Z,10.07
2019-02-08T01:58:20.856Z,9.00
2019-02-08T02:00:50.009Z,8.60
2019-02-08T02:03:20.809Z,8.87
2019-02-08T02:05:50.069Z,9.60
2019-02-08T02:08:19.208Z,8.90
2019-02-08T02:10:48.426Z,8.47
2019-02-08T02:13:17.574Z,9.40
2019-02-08T02:15:46.725Z,9.60
2019-02-08T02:18:16.083Z,9.83
2019-02-08T02:20:45.298Z,8.87
2019-02-08T02:23:16.000Z,9.40
2019-02-08T02:25:45.537Z,7.93
2019-02-08T02:28:14.864Z,7.00
2019-02-08T02:30:44.085Z,6.17
2019-02-08T02:33:13.886Z,5.53
2019-02-08T02:35:43.330Z,5.40
2019-02-08T02:38:12.834Z,5.30
2019-02-08T02:40:41.981Z,4.97
2019-02-08T02:43:11.655Z,4.73
2019-02-08T02:45:41.164Z,4.57
2019-02-08T02:48:13.783Z,4.70
2019-02-08T02:50:43.121Z,4.30
2019-02-08T02:53:12.737Z,4.60
2019-02-08T02:55:41.969Z,4.30
2019-02-08T02:58:11.165Z,4.90
2019-02-08T03:00:48.033Z,4.63
2019-02-08T03:03:17.953Z,3.90
2019-02-08T03:05:47.085Z,4.63
2019-02-08T03:08:18.091Z,4.30
2019-02-08T03:10:47.325Z,4.17
2019-02-08T03:13:16.664Z,4.77
2019-02-08T03:15:45.823Z,5.20
2019-02-08T03:18:14.977Z,4.67
2019-02-08T03:20:44.435Z,4.10
2019-02-08T03:23:13.714Z,4.70
2019-02-08T03:25:42.865Z,4.53
2019-02-08T03:28:12.042Z,3.70
2019-02-08T03:30:49.914Z,4.60
2019-02-08T03:33:19.101Z,3.80
2019-02-08T03:35:48.254Z,3.97
2019-02-08T03:38:17.414Z,4.60
2019-02-08T03:40:46.605Z,3.80
2019-02-08T03:43:15.944Z,4.93
2019-02-08T03:45:48.364Z,4.07
2019-02-08T03:48:17.508Z,4.57
2019-02-08T03:50:46.658Z,4.40
2019-02-08T03:53:16.153Z,3.53
2019-02-08T03:55:45.253Z,3.87
2019-02-08T03:58:14.406Z,3.63
2019-02-08T04:00:47.976Z,3.00
2019-02-08T04:03:18.908Z,3.60
2019-02-08T04:05:48.063Z,3.60
2019-02-08T04:08:17.252Z,3.03
2019-02-08T04:10:46.476Z,3.13
2019-02-08T04:13:16.706Z,3.40
2019-02-08T04:15:45.827Z,3.70
2019-02-08T04:18:15.010Z,2.70
2019-02-08T04:20:44.277Z,3.27
2019-02-08T04:23:13.450Z,3.23
2019-02-08T04:25:42.577Z,2.77
2019-02-08T04:28:11.901Z,2.90
2019-02-08T04:30:41.096Z,3.97
2019-02-08T04:33:10.215Z,3.10
2019-02-08T04:35:39.330Z,3.57
2019-02-08T04:38:08.452Z,4.27
2019-02-08T04:40:37.580Z,3.30
2019-02-08T04:43:06.771Z,3.93
2019-02-08T04:45:35.905Z,3.23
2019-02-08T04:48:05.045Z,3.50
2019-02-08T04:50:34.245Z,3.87
2019-02-08T04:53:03.356Z,3.40
2019-02-08T04:55:32.576Z,3.60
2019-02-08T04:58:01.793Z,3.10
2019-02-08T05:00:33.586Z,3.40
2019-02-08T05:03:02.709Z,3.60
2019-02-08T05:05:31.976Z,3.00
2019-02-08T05:08:01.110Z,3.27
2019-02-08T05:10:31.277Z,3.03
2019-02-08T05:13:00.431Z,3.60
2019-02-08T05:15:29.865Z,2.90
2019-02-08T05:17:59.041Z,3.53
2019-02-08T05:20:30.595Z,3.70
2019-02-08T05:22:59.924Z,3.30
2019-02-08T05:25:29.332Z,4.20
2019-02-08T05:27:58.431Z,3.43
2019-02-08T05:30:30.386Z,3.50
2019-02-08T05:32:59.624Z,3.30
2019-02-08T05:35:28.772Z,3.30
2019-02-08T05:37:58.028Z,3.10
2019-02-08T05:40:27.277Z,3.80
2019-02-08T05:42:58.229Z,3.90
2019-02-08T05:45:29.441Z,3.60
2019-02-08T05:47:58.642Z,3.50
2019-02-08T05:50:28.193Z,4.27
2019-02-08T05:52:57.595Z,4.03
2019-02-08T05:55:28.924Z,4.37
2019-02-08T05:57:58.345Z,4.60
2019-02-08T06:00:52.281Z,6.43
2019-02-08T06:03:21.819Z,4.80
2019-02-08T06:05:51.250Z,4.00
2019-02-08T06:08:20.509Z,4.77
2019-02-08T06:10:49.703Z,4.47
2019-02-08T06:13:18.970Z,4.67
2019-02-08T06:15:48.161Z,4.40
2019-02-08T06:18:17.313Z,5.20
2019-02-08T06:20:46.575Z,4.80
2019-02-08T06:23:15.740Z,4.20
2019-02-08T06:25:44.911Z,5.73
2019-02-08T06:28:14.050Z,5.17
2019-02-08T06:30:43.224Z,4.70
2019-02-08T06:33:12.434Z,5.17
2019-02-08T06:35:41.647Z,5.60
2019-02-08T06:38:11.460Z,5.30
2019-02-08T06:40:42.734Z,5.00
2019-02-08T06:43:11.882Z,4.87
2019-02-08T06:45:41.632Z,6.65
2019-02-08T06:48:12.352Z,5.27
2019-02-08T06:50:41.594Z,5.00
2019-02-08T06:53:10.925Z,5.60
2019-02-08T06:55:40.087Z,5.00
2019-02-08T06:58:37.900Z,5.70
2019-02-08T07:01:25.772Z,5.10
2019-02-08T07:04:13.989Z,5.30
2019-02-08T07:07:01.068Z,5.20
2019-02-08T07:09:49.725Z,6.80
2019-02-08T07:12:28.547Z,6.00
2019-02-08T07:15:16.757Z,6.10
2019-02-08T07:18:05.730Z,6.20
2019-02-08T07:20:54.403Z,6.27
2019-02-08T07:23:43.184Z,7.20
2019-02-08T07:26:30.179Z,6.83
2019-02-08T07:29:08.080Z,7.40
2019-02-08T07:31:59.310Z,7.10
2019-02-08T07:34:39.306Z,7.67
2019-02-08T07:37:36.583Z,8.37
2019-02-08T07:40:26.245Z,6.93
2019-02-08T07:43:15.785Z,6.67
2019-02-08T07:45:54.797Z,7.03
2019-02-08T07:48:41.381Z,6.90
2019-02-08T07:51:26.876Z,7.00
2019-02-08T07:54:15.148Z,7.13
2019-02-08T07:57:03.489Z,6.90
2019-02-08T07:59:51.800Z,7.60
2019-02-08T08:02:58.725Z,7.40
2019-02-08T08:05:45.718Z,7.80
2019-02-08T08:08:32.783Z,7.50
2019-02-08T08:11:15.686Z,7.33
2019-02-08T08:14:03.852Z,7.00
2019-02-08T08:16:55.318Z,8.83
2019-02-08T08:19:42.953Z,14.60
2019-02-08T08:22:36.813Z,7.53
2019-02-08T08:25:34.588Z,7.13
2019-02-08T08:28:24.449Z,7.70
2019-02-08T08:31:00.622Z,7.60
2019-02-08T08:33:37.996Z,6.97
2019-02-08T08:36:47.158Z,13.80
2019-02-08T08:39:52.868Z,7.40
2019-02-08T08:43:04.765Z,7.40
2019-02-08T08:46:07.006Z,7.20
2019-02-08T08:49:14.802Z,8.10
2019-02-08T08:52:29.743Z,7.80
2019-02-08T08:55:41.789Z,7.20
2019-02-08T08:59:01.505Z,6.43
2019-02-08T09:02:00.455Z,7.40
2019-02-08T09:04:56.038Z,7.13
2019-02-08T09:08:08.417Z,6.33
2019-02-08T09:11:13.236Z,6.50
2019-02-08T09:14:22.976Z,7.40
2019-02-08T09:17:29.853Z,7.57
2019-02-08T09:20:36.145Z,6.30
2019-02-08T09:23:31.120Z,7.27
2019-02-08T09:26:33.866Z,6.70
2019-02-08T09:29:46.331Z,6.30
2019-02-08T09:32:58.673Z,5.40
2019-02-08T09:36:16.438Z,5.70
2019-02-08T09:39:22.949Z,4.77
2019-02-08T09:42:42.417Z,5.20
2019-02-08T09:45:58.489Z,5.47
2019-02-08T09:49:22.954Z,5.00
2019-02-08T09:52:45.827Z,4.10
2019-02-08T09:55:59.902Z,4.20
2019-02-08T09:58:57.344Z,3.80
2019-02-08T10:02:23.224Z,5.50
2019-02-08T10:05:26.214Z,3.37
2019-02-08T10:08:41.333Z,3.90
2019-02-08T10:11:59.150Z,3.77
2019-02-08T10:15:00.393Z,4.43
2019-02-08T10:18:16.285Z,3.60
2019-02-08T10:21:26.010Z,2.70
2019-02-08T10:24:36.437Z,2.97
2019-02-08T10:27:52.177Z,3.27
2019-02-08T10:31:08.957Z,3.00
2019-02-08T10:34:21.710Z,2.80
2019-02-08T10:37:35.162Z,2.10
2019-02-08T10:40:39.011Z,1.90
2019-02-08T10:43:57.294Z,1.43
2019-02-08T10:47:10.897Z,1.33
2019-02-08T10:50:32.802Z,1.40
2019-02-08T10:53:34.129Z,1.30
2019-02-08T10:56:58.882Z,1.73
2019-02-08T11:00:10.071Z,1.90
2019-02-08T11:03:29.691Z,1.40
2019-02-08T11:06:48.406Z,1.20
2019-02-08T11:09:54.520Z,1.40
2019-02-08T11:13:07.101Z,1.87
2019-02-08T11:16:13.308Z,1.10
2019-02-08T11:19:18.077Z,1.10
2019-02-08T11:21:49.565Z,1.40
2019-02-08T11:24:28.788Z,1.63
2019-02-08T11:27:00.296Z,1.47
2019-02-08T11:29:29.497Z,1.80
2019-02-08T11:31:58.883Z,1.10
2019-02-08T11:34:28.189Z,1.20
2019-02-08T11:36:57.545Z,1.43
2019-02-08T11:39:27.129Z,1.20
2019-02-08T11:41:56.336Z,1.40
2019-02-08T11:44:25.595Z,1.10
2019-02-08T11:46:54.880Z,1.67
2019-02-08T11:49:24.176Z,1.10
2019-02-08T11:51:53.450Z,1.80
2019-02-08T11:54:22.749Z,1.27
2019-02-08T11:56:51.924Z,1.53
2019-02-08T11:59:21.165Z,1.57
2019-02-08T12:01:51.587Z,1.40
2019-02-08T12:04:21.102Z,1.03
2019-02-08T12:06:50.930Z,1.30
2019-02-08T12:09:20.213Z,1.40
2019-02-08T12:11:49.543Z,1.33
2019-02-08T12:14:18.802Z,1.50
2019-02-08T12:16:48.065Z,1.40
2019-02-08T12:19:18.904Z,1.10
2019-02-08T12:21:48.205Z,1.17
2019-02-08T12:24:17.546Z,1.80
2019-02-08T12:26:46.911Z,1.50
2019-02-08T12:29:16.160Z,1.40
2019-02-08T12:31:45.417Z,1.40
2019-02-08T12:34:14.585Z,1.50
2019-02-08T12:36:43.865Z,1.90
2019-02-08T12:39:13.130Z,3.00
2019-02-08T12:41:42.847Z,1.20
2019-02-08T12:44:12.928Z,1.80
2019-02-08T12:46:42.120Z,1.93
2019-02-08T12:49:11.373Z,1.40
2019-02-08T12:51:40.640Z,1.53
2019-02-08T12:54:09.877Z,1.80
2019-02-08T12:56:45.462Z,1.20
2019-02-08T12:59:10.025Z,1.63
2019-02-08T13:01:39.237Z,2.10
2019-02-08T13:04:08.506Z,2.10
2019-02-08T13:06:37.880Z,1.30
2019-02-08T13:09:11.314Z,2.03
2019-02-08T13:11:40.499Z,2.87
2019-02-08T13:14:09.632Z,1.40
2019-02-08T13:16:38.908Z,1.50
2019-02-08T13:19:08.187Z,2.57
2019-02-08T13:21:37.491Z,1.87
2019-02-08T13:24:06.789Z,1.43
2019-02-08T13:26:36.110Z,1.97
2019-02-08T13:29:05.798Z,1.97
2019-02-08T13:31:35.366Z,1.40
2019-02-08T13:34:04.832Z,1.77
2019-02-08T13:36:34.180Z,1.57
2019-02-08T13:39:05.129Z,1.53
2019-02-08T13:41:34.341Z,1.70
2019-02-08T13:44:03.656Z,1.50
2019-02-08T13:46:32.817Z,1.63
2019-02-08T13:49:02.028Z,1.40
2019-02-08T13:51:31.306Z,1.30
2019-02-08T13:54:00.541Z,1.57
2019-02-08T13:56:29.798Z,1.63
2019-02-08T13:58:58.941Z,2.73
2019-02-08T14:01:29.705Z,2.43
2019-02-08T14:03:58.975Z,2.10
2019-02-08T14:06:28.300Z,1.40
2019-02-08T14:08:57.665Z,1.37
2019-02-08T14:11:26.858Z,1.90
2019-02-08T14:13:56.108Z,1.20
2019-02-08T14:16:25.407Z,1.20
2019-02-08T14:18:54.532Z,1.93
2019-02-08T14:21:23.796Z,1.60
2019-02-08T14:23:53.001Z,1.30
2019-02-08T14:26:22.170Z,1.30
2019-02-08T14:28:51.440Z,1.23
2019-02-08T14:31:20.750Z,1.37
2019-02-08T14:33:51.492Z,1.27
2019-02-08T14:36:20.736Z,1.87
2019-02-08T14:38:49.960Z,1.30
2019-02-08T14:41:20.348Z,1.43
2019-02-08T14:43:49.665Z,1.40
2019-02-08T14:46:18.868Z,1.23
2019-02-08T14:48:48.116Z,1.53
2019-02-08T14:51:17.476Z,1.53
2019-02-08T14:53:46.788Z,1.40
2019-02-08T14:56:15.936Z,1.60
2019-02-08T14:58:45.155Z,1.27
2019-02-08T15:01:14.391Z,1.43
2019-02-08T15:03:43.631Z,1.50
2019-02-08T15:06:12.824Z,1.10
2019-02-08T15:08:42.090Z,1.40
2019-02-08T15:11:11.269Z,2.03
2019-02-08T15:13:41.938Z,1.60
2019-02-08T15:16:11.208Z,1.27
2019-02-08T15:18:40.389Z,1.77
2019-02-08T15:21:09.613Z,1.30
2019-02-08T15:23:38.867Z,1.20
2019-02-08T15:26:08.082Z,1.20
2019-02-08T15:28:37.489Z,1.63
2019-02-08T15:31:06.808Z,2.53
2019-02-08T15:33:36.116Z,1.67
2019-02-08T15:36:05.369Z,2.00
2019-02-08T15:38:34.517Z,2.47
2019-02-08T15:41:03.913Z,1.37
2019-02-08T15:43:33.189Z,1.43
2019-02-08T15:46:04.661Z,1.57
2019-02-08T15:48:34.463Z,1.63
2019-02-08T15:51:04.216Z,2.33
2019-02-08T15:53:33.462Z,2.60
2019-02-08T15:56:14.811Z,1.57
2019-02-08T15:58:44.072Z,1.70
2019-02-08T16:01:13.644Z,2.03
2019-02-08T16:03:42.815Z,1.87
2019-02-08T16:06:12.023Z,1.80
2019-02-08T16:08:41.219Z,2.20
2019-02-08T16:11:10.573Z,2.40
2019-02-08T16:13:39.811Z,2.70
2019-02-08T16:16:09.356Z,3.27
2019-02-08T16:18:38.596Z,2.37
2019-02-08T16:21:07.909Z,2.10
2019-02-08T16:23:37.138Z,1.60
2019-02-08T16:26:06.316Z,1.97
2019-02-08T16:28:35.460Z,1.70
2019-02-08T16:31:05.335Z,1.73
2019-02-08T16:33:34.643Z,2.10
2019-02-08T16:36:04.153Z,2.00
2019-02-08T16:38:33.330Z,3.13
2019-02-08T16:41:02.881Z,1.97
2019-02-08T16:43:32.181Z,1.73
2019-02-08T16:46:01.486Z,2.97
2019-02-08T16:48:31.821Z,3.40
2019-02-08T16:51:01.228Z,2.70
2019-02-08T16:53:30.689Z,2.93
2019-02-08T16:55:59.943Z,2.77
2019-02-08T16:58:29.097Z,2.90
2019-02-08T17:00:58.497Z,2.87
2019-02-08T17:03:27.726Z,2.03
2019-02-08T17:05:57.060Z,2.63
2019-02-08T17:08:26.256Z,3.60
2019-02-08T17:10:55.516Z,4.63
2019-02-08T17:13:24.807Z,3.93
2019-02-08T17:15:54.165Z,4.30
2019-02-08T17:18:23.418Z,3.90
2019-02-08T17:20:52.869Z,3.10
2019-02-08T17:23:23.725Z,3.63
2019-02-08T17:25:53.013Z,2.77
2019-02-08T17:28:22.277Z,2.53
2019-02-08T17:30:51.529Z,2.70
2019-02-08T17:33:20.734Z,3.27
2019-02-08T17:35:49.999Z,6.13
2019-02-08T17:38:19.313Z,3.87
2019-02-08T17:40:48.853Z,4.80
2019-02-08T17:43:18.089Z,3.23
2019-02-08T17:45:49.050Z,3.47
2019-02-08T17:48:18.319Z,3.30
2019-02-08T17:50:47.476Z,3.10
2019-02-08T17:53:16.649Z,3.43
2019-02-08T17:55:45.919Z,3.70
2019-02-08T17:58:15.272Z,3.43
2019-02-08T18:00:56.257Z,3.17
2019-02-08T18:03:25.447Z,3.53
2019-02-08T18:05:54.787Z,4.20
2019-02-08T18:08:24.069Z,4.10
2019-02-08T18:10:53.266Z,4.37
2019-02-08T18:13:22.634Z,4.00
2019-02-08T18:15:51.962Z,4.00
2019-02-08T18:18:23.098Z,5.07
2019-02-08T18:20:54.993Z,5.63
2019-02-08T18:23:24.240Z,4.90
2019-02-08T18:25:53.739Z,5.50
2019-02-08T18:28:23.024Z,4.93
2019-02-08T18:30:52.250Z,4.13
2019-02-08T18:33:21.561Z,4.50
2019-02-08T18:35:50.827Z,5.03
2019-02-08T18:38:20.168Z,4.00
2019-02-08T18:40:49.362Z,4.20
2019-02-08T18:43:18.606Z,4.03
2019-02-08T18:45:47.765Z,3.90
2019-02-08T18:48:17.137Z,4.10
2019-02-08T18:50:49.141Z,3.30
2019-02-08T18:53:18.649Z,3.00
2019-02-08T18:55:48.079Z,3.13
2019-02-08T18:58:19.128Z,3.73
2019-02-08T19:00:49.534Z,3.13
2019-02-08T19:03:18.942Z,3.90
2019-02-08T19:05:50.272Z,3.90
2019-02-08T19:08:19.564Z,4.30
2019-02-08T19:10:48.929Z,9.73
2019-02-08T19:13:18.169Z,4.87
2019-02-08T19:15:47.741Z,4.90
2019-02-08T19:18:17.005Z,5.43
2019-02-08T19:20:46.275Z,4.80
2019-02-08T19:23:15.628Z,4.17
2019-02-08T19:25:45.053Z,4.50
2019-02-08T19:28:14.914Z,5.70
2019-02-08T19:30:44.594Z,4.27
2019-02-08T19:33:13.880Z,4.77
2019-02-08T19:35:43.310Z,5.30
2019-02-08T19:38:13.688Z,4.90
2019-02-08T19:40:44.520Z,4.93
2019-02-08T19:43:13.918Z,6.10
2019-02-08T19:45:44.256Z,5.03
2019-02-08T19:48:13.598Z,5.20
2019-02-08T19:50:45.496Z,6.50
2019-02-08T19:53:14.649Z,6.70
2019-02-08T19:55:43.993Z,5.70
2019-02-08T19:58:13.529Z,5.60
2019-02-08T20:00:43.200Z,5.60
2019-02-08T20:03:12.887Z,5.03
2019-02-08T20:05:42.490Z,4.93
2019-02-08T20:08:13.353Z,5.10
2019-02-08T20:10:45.799Z,5.17
2019-02-08T20:13:15.087Z,4.93
2019-02-08T20:15:44.412Z,4.90
2019-02-08T20:18:13.750Z,5.30
2019-02-08T20:20:43.052Z,5.00
2019-02-08T20:23:12.308Z,6.43
2019-02-08T20:25:41.629Z,5.03
2019-02-08T20:28:10.936Z,6.53
2019-02-08T20:30:40.219Z,7.00
2019-02-08T20:33:09.482Z,4.63
2019-02-08T20:35:38.681Z,5.73
2019-02-08T20:38:09.154Z,6.30
2019-02-08T20:40:43.989Z,9.97
2019-02-08T20:43:13.296Z,5.50
2019-02-08T20:45:42.673Z,5.03
2019-02-08T20:48:14.808Z,6.17
2019-02-08T20:50:44.352Z,6.20
2019-02-08T20:53:13.809Z,7.10
2019-02-08T20:55:43.227Z,7.20
2019-02-08T20:58:13.159Z,6.90
2019-02-08T21:00:46.183Z,7.30
2019-02-08T21:03:16.459Z,7.13
2019-02-08T21:05:46.915Z,6.33
2019-02-08T21:08:17.626Z,6.10
2019-02-08T21:10:46.880Z,6.30
2019-02-08T21:13:16.115Z,7.40
2019-02-08T21:15:45.468Z,5.43
2019-02-08T21:18:14.782Z,6.70
2019-02-08T21:20:46.233Z,7.33
2019-02-08T21:23:16.314Z,5.47
2019-02-08T21:25:52.096Z,7.30
2019-02-08T21:28:16.521Z,5.70
2019-02-08T21:30:45.747Z,6.00
2019-02-08T21:33:15.191Z,6.93
2019-02-08T21:35:44.870Z,7.00
2019-02-08T21:38:14.143Z,7.80
2019-02-08T21:40:43.465Z,8.00
2019-02-08T21:43:12.772Z,7.20
2019-02-08T21:45:43.807Z,8.23
2019-02-08T21:48:13.896Z,7.40
2019-02-08T21:50:44.959Z,7.80
2019-02-08T21:53:14.429Z,8.33
2019-02-08T21:55:43.697Z,8.97
2019-02-08T21:58:12.951Z,7.50
2019-02-08T22:00:43.419Z,5.90
2019-02-08T22:03:13.122Z,9.77
2019-02-08T22:05:45.250Z,8.47
2019-02-08T22:08:14.527Z,8.50
2019-02-08T22:10:43.709Z,7.77
2019-02-08T22:13:12.911Z,7.60
2019-02-08T22:15:42.210Z,8.10
2019-02-08T22:18:11.503Z,7.90
2019-02-08T22:20:40.872Z,7.73
2019-02-08T22:23:10.307Z,6.90
2019-02-08T22:25:39.744Z,6.53
2019-02-08T22:28:09.184Z,8.77
2019-02-08T22:30:38.868Z,6.90
2019-02-08T22:33:09.335Z,7.07
2019-02-08T22:35:39.038Z,6.87
2019-02-08T22:38:08.978Z,7.67
2019-02-08T22:40:38.413Z,6.50
2019-02-08T22:43:07.865Z,6.70
2019-02-08T22:45:38.789Z,7.27
2019-02-08T22:48:09.540Z,7.67
2019-02-08T22:50:38.932Z,8.13
2019-02-08T22:53:09.970Z,8.53
2019-02-08T22:55:39.320Z,8.50
2019-02-08T22:58:09.257Z,7.23
2019-02-08T23:01:34.775Z,7.20
2019-02-08T23:04:06.392Z,8.00
2019-02-08T23:06:35.678Z,7.03
2019-02-08T23:09:09.079Z,7.30
2019-02-08T23:11:38.347Z,7.13
2019-02-08T23:14:07.758Z,7.33
2019-02-08T23:16:37.030Z,6.70
2019-02-08T23:19:06.960Z,7.23
2019-02-08T23:21:36.312Z,6.40
2019-02-08T23:24:06.075Z,6.40
2019-02-08T23:26:35.228Z,6.13
2019-02-08T23:29:06.416Z,6.60
2019-02-08T23:31:35.620Z,6.30
2019-02-08T23:34:04.807Z,7.53
2019-02-08T23:36:33.961Z,7.03
2019-02-08T23:39:04.281Z,8.17
2019-02-08T23:41:33.676Z,6.97
2019-02-08T23:44:02.872Z,7.90
2019-02-08T23:46:32.020Z,7.87
2019-02-08T23:49:01.269Z,6.70
2019-02-08T23:51:30.423Z,7.67
2019-02-08T23:54:01.090Z,7.23
2019-02-08T23:56:30.374Z,7.30
2019-02-08T23:58:59.532Z,7.00
